createdAt,value
2022-12-31T00:00:54.252Z,93.15
2022-12-31T00:02:06.431Z,92.93
2022-12-31T00:03:11.136Z,93.18
2022-12-31T00:04:18.605Z,93.15
2022-12-31T00:05:26.374Z,92.87
2022-12-31T00:06:36.323Z,92.74
2022-12-31T00:08:46.838Z,92.48
2022-12-31T00:09:51.555Z,92.51
2022-12-31T00:11:02.394Z,92.33
2022-12-31T00:12:29.560Z,92.34
2022-12-31T00:13:37.371Z,92.45
2022-12-31T00:14:41.530Z,92.67
2022-12-31T00:15:48.692Z,92.87
2022-12-31T00:16:57.912Z,92.65
2022-12-31T00:18:22.019Z,92.67
2022-12-31T00:19:36.917Z,92.44
2022-12-31T00:20:56.701Z,92.65
2022-12-31T00:22:15.025Z,92.45
2022-12-31T00:25:01.399Z,92.47
2022-12-31T00:26:25.261Z,92.35
2022-12-31T00:27:48.852Z,92.17
2022-12-31T00:29:15.596Z,92.44
2022-12-31T00:30:33.188Z,92.36
2022-12-31T00:31:39.305Z,92.19
2022-12-31T00:33:40.657Z,92.19
2022-12-31T00:35:09.737Z,92.40
2022-12-31T00:36:31.067Z,92.20
2022-12-31T00:37:34.728Z,92.60
2022-12-31T00:38:49.668Z,92.14
2022-12-31T00:39:53.814Z,92.66
2022-12-31T00:41:09.901Z,92.89
2022-12-31T00:42:14.238Z,93.15
2022-12-31T00:43:31.106Z,93.01
2022-12-31T00:44:45.940Z,92.75
2022-12-31T00:45:49.906Z,92.84
2022-12-31T00:47:07.520Z,92.88
2022-12-31T00:48:11.485Z,92.51
2022-12-31T00:49:22.871Z,92.69
2022-12-31T00:50:51.116Z,92.75
2022-12-31T00:51:55.367Z,92.81
2022-12-31T00:53:01.533Z,92.88
2022-12-31T00:54:06.191Z,92.66
2022-12-31T00:55:20.384Z,92.83
2022-12-31T00:56:31.452Z,92.62
2022-12-31T00:57:36.531Z,92.44
2022-12-31T00:58:45.860Z,92.43
2022-12-31T00:59:57.844Z,92.64
2022-12-31T01:01:19.528Z,92.30
2022-12-31T01:02:25.316Z,92.26
2022-12-31T01:03:46.313Z,92.04
2022-12-31T01:05:08.239Z,92.21
2022-12-31T01:06:36.069Z,92.31
2022-12-31T01:08:15.906Z,92.58
2022-12-31T01:09:23.661Z,92.67
2022-12-31T01:10:51.266Z,92.55
2022-12-31T01:11:55.398Z,92.34
2022-12-31T01:13:00.448Z,92.40
2022-12-31T01:14:16.031Z,92.29
2022-12-31T01:15:21.861Z,91.96
2022-12-31T01:16:42.507Z,92.26
2022-12-31T01:17:56.081Z,92.23
2022-12-31T01:19:21.213Z,92.21
2022-12-31T01:20:25.425Z,92.05
2022-12-31T01:21:45.752Z,92.39
2022-12-31T01:23:16.693Z,92.09
2022-12-31T01:24:51.059Z,92.42
2022-12-31T01:26:20.234Z,92.26
2022-12-31T01:27:38.333Z,92.97
2022-12-31T01:28:43.993Z,92.68
2022-12-31T01:30:09.016Z,93.02
2022-12-31T01:31:31.196Z,93.57
2022-12-31T01:33:04.523Z,93.48
2022-12-31T01:34:29.615Z,93.60
2022-12-31T01:35:38.680Z,93.55
2022-12-31T01:36:47.612Z,93.57
2022-12-31T01:37:52.851Z,93.59
2022-12-31T01:39:04.916Z,93.53
2022-12-31T01:40:21.836Z,93.81
2022-12-31T01:41:46.781Z,94.06
2022-12-31T01:43:07.390Z,93.61
2022-12-31T01:44:12.509Z,93.90
2022-12-31T01:45:33.913Z,93.32
2022-12-31T01:47:02.586Z,93.42
2022-12-31T01:48:16.352Z,93.54
2022-12-31T01:49:44.986Z,93.80
2022-12-31T01:50:49.970Z,93.48
2022-12-31T01:52:27.706Z,93.67
2022-12-31T01:53:37.272Z,93.93
2022-12-31T01:54:58.374Z,93.93
2022-12-31T01:56:03.462Z,93.90
2022-12-31T01:57:12.328Z,94.13
2022-12-31T01:58:54.798Z,93.56
2022-12-31T02:00:02.270Z,93.69
2022-12-31T02:01:39.070Z,93.80
2022-12-31T02:02:47.785Z,93.62
2022-12-31T02:03:53.671Z,93.20
2022-12-31T02:05:01.589Z,93.17
2022-12-31T02:06:26.365Z,93.19
2022-12-31T02:07:31.677Z,92.98
2022-12-31T02:08:56.570Z,93.10
2022-12-31T02:10:01.332Z,92.97
2022-12-31T02:11:29.864Z,92.60
2022-12-31T02:12:35.606Z,93.17
2022-12-31T02:13:39.905Z,92.96
2022-12-31T02:14:50.271Z,93.21
2022-12-31T02:16:37.873Z,92.88
2022-12-31T02:17:59.318Z,93.13
2022-12-31T02:19:46.156Z,93.78
2022-12-31T02:21:24.752Z,93.64
2022-12-31T02:22:40.031Z,93.74
2022-12-31T02:24:37.163Z,93.78
2022-12-31T02:26:17.341Z,93.66
2022-12-31T02:27:44.493Z,94.26
2022-12-31T02:29:27.526Z,94.29
2022-12-31T02:30:34.860Z,94.25
2022-12-31T02:32:12.378Z,94.44
2022-12-31T02:33:33.741Z,94.19
2022-12-31T02:34:52.157Z,94.08
2022-12-31T02:36:03.429Z,93.72
2022-12-31T02:37:24.260Z,93.81
2022-12-31T02:38:41.979Z,93.65
2022-12-31T02:39:48.554Z,93.36
2022-12-31T02:40:55.086Z,93.68
2022-12-31T02:42:02.870Z,93.64
2022-12-31T02:43:06.793Z,93.69
2022-12-31T02:44:28.942Z,93.35
2022-12-31T02:45:46.000Z,93.54
2022-12-31T02:47:10.041Z,93.24
2022-12-31T02:48:29.646Z,93.18
2022-12-31T02:50:04.269Z,93.30
2022-12-31T02:51:30.666Z,93.40
2022-12-31T02:53:09.781Z,93.06
2022-12-31T02:54:34.387Z,93.33
2022-12-31T02:56:16.450Z,93.56
2022-12-31T02:57:44.932Z,93.50
2022-12-31T02:59:15.665Z,93.15
2022-12-31T03:00:40.042Z,93.00
2022-12-31T03:02:10.731Z,92.70
2022-12-31T03:03:14.755Z,92.84
2022-12-31T03:04:33.320Z,92.99
2022-12-31T03:05:49.867Z,92.89
2022-12-31T03:06:54.418Z,92.73
2022-12-31T03:07:58.578Z,92.56
2022-12-31T03:09:16.572Z,92.88
2022-12-31T03:10:21.665Z,92.62
2022-12-31T03:11:44.109Z,92.45
2022-12-31T03:13:04.297Z,92.64
2022-12-31T03:14:12.352Z,92.88
2022-12-31T03:15:36.059Z,92.56
2022-12-31T03:16:39.720Z,92.77
2022-12-31T03:18:10.924Z,92.71
2022-12-31T03:19:39.380Z,92.88
2022-12-31T03:21:09.048Z,92.97
2022-12-31T03:22:28.579Z,92.85
2022-12-31T03:24:12.987Z,92.71
2022-12-31T03:25:34.595Z,92.75
2022-12-31T03:26:40.467Z,92.73
2022-12-31T03:27:47.227Z,92.98
2022-12-31T03:28:58.302Z,92.61
2022-12-31T03:30:07.557Z,92.85
2022-12-31T03:31:29.603Z,92.62
2022-12-31T03:32:33.896Z,92.97
2022-12-31T03:33:42.023Z,93.06
2022-12-31T03:34:45.908Z,92.80
2022-12-31T03:35:51.509Z,92.60
2022-12-31T03:36:55.051Z,92.72
2022-12-31T03:37:59.752Z,92.69
2022-12-31T03:39:12.333Z,92.62
2022-12-31T03:40:25.796Z,92.63
2022-12-31T03:41:30.701Z,92.69
2022-12-31T03:42:34.800Z,92.25
2022-12-31T03:43:39.022Z,92.45
2022-12-31T03:44:58.531Z,92.46
2022-12-31T03:46:02.892Z,92.71
2022-12-31T03:47:06.786Z,92.39
2022-12-31T03:48:11.473Z,92.45
2022-12-31T03:49:15.284Z,92.61
2022-12-31T03:50:20.684Z,92.36
2022-12-31T03:51:32.285Z,92.68
2022-12-31T03:52:36.953Z,92.38
2022-12-31T03:53:43.877Z,92.39
2022-12-31T03:54:50.413Z,92.41
2022-12-31T03:55:58.333Z,92.56
2022-12-31T03:57:02.175Z,92.94
2022-12-31T03:58:20.301Z,93.37
2022-12-31T03:59:24.278Z,93.08
2022-12-31T04:00:45.684Z,93.25
2022-12-31T04:01:53.120Z,93.24
2022-12-31T04:02:57.094Z,92.98
2022-12-31T04:04:00.650Z,93.34
2022-12-31T04:05:09.156Z,93.41
2022-12-31T04:06:12.771Z,93.17
2022-12-31T04:07:28.346Z,93.57
2022-12-31T04:08:32.338Z,93.73
2022-12-31T04:09:35.975Z,94.04
2022-12-31T04:10:39.487Z,93.76
2022-12-31T04:11:45.483Z,94.56
2022-12-31T04:12:49.927Z,94.57
2022-12-31T04:14:00.292Z,94.28
2022-12-31T04:15:10.876Z,94.03
2022-12-31T04:16:19.035Z,94.12
2022-12-31T04:17:23.169Z,93.94
2022-12-31T04:18:33.031Z,93.78
2022-12-31T04:20:44.794Z,93.61
2022-12-31T04:21:48.624Z,93.76
2022-12-31T04:23:01.813Z,93.36
2022-12-31T04:24:08.458Z,93.47
2022-12-31T04:25:21.329Z,93.34
2022-12-31T04:26:26.328Z,93.54
2022-12-31T04:27:33.722Z,93.28
2022-12-31T04:28:37.837Z,92.88
2022-12-31T04:29:45.509Z,92.75
2022-12-31T04:30:49.269Z,92.55
2022-12-31T04:31:58.650Z,92.60
2022-12-31T04:33:02.595Z,92.69
2022-12-31T04:34:17.802Z,92.56
2022-12-31T04:35:24.351Z,92.46
2022-12-31T04:36:28.405Z,92.16
2022-12-31T04:37:32.766Z,92.06
2022-12-31T04:38:36.426Z,92.11
2022-12-31T04:39:50.873Z,92.15
2022-12-31T04:41:15.076Z,92.44
2022-12-31T04:42:21.954Z,92.19
2022-12-31T04:43:33.329Z,92.42
2022-12-31T04:44:36.985Z,92.29
2022-12-31T04:45:40.641Z,92.58
2022-12-31T04:46:45.292Z,92.58
2022-12-31T04:47:54.218Z,92.55
2022-12-31T04:48:59.157Z,92.66
2022-12-31T04:50:02.897Z,92.74
2022-12-31T04:51:08.798Z,92.65
2022-12-31T04:52:14.457Z,92.60
2022-12-31T04:53:24.778Z,92.27
2022-12-31T04:54:29.777Z,92.45
2022-12-31T04:55:33.398Z,92.07
2022-12-31T04:56:37.490Z,91.84
2022-12-31T04:57:45.174Z,92.00
2022-12-31T04:58:59.254Z,92.06
2022-12-31T05:00:04.056Z,91.73
2022-12-31T05:01:24.405Z,92.02
2022-12-31T05:02:30.492Z,91.95
2022-12-31T05:03:35.815Z,91.61
2022-12-31T05:04:39.706Z,91.96
2022-12-31T05:05:49.687Z,91.84
2022-12-31T05:06:53.933Z,92.02
2022-12-31T05:07:57.534Z,91.80
2022-12-31T05:09:02.294Z,92.09
2022-12-31T05:10:24.989Z,92.42
2022-12-31T05:11:29.101Z,92.25
2022-12-31T05:12:33.158Z,92.33
2022-12-31T05:13:36.984Z,92.23
2022-12-31T05:14:40.689Z,92.17
2022-12-31T05:15:47.667Z,92.43
2022-12-31T05:16:52.996Z,92.50
2022-12-31T05:18:12.646Z,92.77
2022-12-31T05:19:28.506Z,92.41
2022-12-31T05:20:32.667Z,92.56
2022-12-31T05:21:43.203Z,92.66
2022-12-31T05:22:48.318Z,92.82
2022-12-31T05:23:52.136Z,92.53
2022-12-31T05:25:00.856Z,92.48
2022-12-31T05:26:05.433Z,92.57
2022-12-31T05:27:11.817Z,92.69
2022-12-31T05:28:26.784Z,92.37
2022-12-31T05:29:33.137Z,92.35
2022-12-31T05:30:41.497Z,92.26
2022-12-31T05:31:49.329Z,92.59
2022-12-31T05:32:57.940Z,92.29
2022-12-31T05:34:04.191Z,92.20
2022-12-31T05:35:18.210Z,92.26
2022-12-31T05:36:21.979Z,92.39
2022-12-31T05:37:29.002Z,92.55
2022-12-31T05:38:34.731Z,92.36
2022-12-31T05:39:40.402Z,92.26
2022-12-31T05:40:46.187Z,92.28
2022-12-31T05:42:03.320Z,92.15
2022-12-31T05:43:10.317Z,92.35
2022-12-31T05:44:14.415Z,92.23
2022-12-31T05:45:31.199Z,92.46
2022-12-31T05:46:37.168Z,92.36
2022-12-31T05:47:55.608Z,92.41
2022-12-31T05:48:59.651Z,92.56
2022-12-31T05:50:17.969Z,92.44
2022-12-31T05:51:23.705Z,92.40
2022-12-31T05:52:29.098Z,92.45
2022-12-31T05:53:35.873Z,92.46
2022-12-31T05:54:44.188Z,92.73
2022-12-31T05:55:53.088Z,92.71
2022-12-31T05:56:58.778Z,92.60
2022-12-31T05:58:05.373Z,92.67
2022-12-31T05:59:26.542Z,92.59
2022-12-31T06:00:34.633Z,92.72
2022-12-31T06:01:40.034Z,92.51
2022-12-31T06:03:00.920Z,92.34
2022-12-31T06:04:25.212Z,92.32
2022-12-31T06:05:29.079Z,92.28
2022-12-31T06:06:43.732Z,92.28
2022-12-31T06:07:50.009Z,92.54
2022-12-31T06:08:57.670Z,92.27
2022-12-31T06:10:02.741Z,92.50
2022-12-31T06:11:15.184Z,92.61
2022-12-31T06:12:24.860Z,92.47
2022-12-31T06:13:29.768Z,92.74
2022-12-31T06:14:33.813Z,92.74
2022-12-31T06:15:40.579Z,92.61
2022-12-31T06:16:45.045Z,92.52
2022-12-31T06:17:55.991Z,92.68
2022-12-31T06:19:30.807Z,92.84
2022-12-31T06:23:22.827Z,92.79
2022-12-31T06:24:42.890Z,93.00
2022-12-31T06:25:53.975Z,93.04
2022-12-31T06:27:46.355Z,92.60
2022-12-31T06:29:25.056Z,92.94
2022-12-31T06:30:43.080Z,92.95
2022-12-31T06:31:48.112Z,93.14
2022-12-31T06:32:58.060Z,93.02
2022-12-31T06:34:14.925Z,93.03
2022-12-31T06:35:35.750Z,93.06
2022-12-31T06:36:44.684Z,93.21
2022-12-31T06:37:48.780Z,93.14
2022-12-31T06:38:53.578Z,92.65
2022-12-31T06:39:57.407Z,92.93
2022-12-31T06:41:17.990Z,92.79
2022-12-31T06:42:24.750Z,92.99
2022-12-31T06:43:31.282Z,92.75
2022-12-31T06:44:36.527Z,92.87
2022-12-31T06:45:40.503Z,92.92
2022-12-31T06:46:48.398Z,92.95
2022-12-31T06:47:54.053Z,92.95
2022-12-31T06:48:58.233Z,93.16
2022-12-31T06:50:05.853Z,92.98
2022-12-31T06:51:21.643Z,92.96
2022-12-31T06:52:27.250Z,93.17
2022-12-31T06:53:31.120Z,92.88
2022-12-31T06:54:36.348Z,92.79
2022-12-31T06:55:40.420Z,92.63
2022-12-31T06:56:57.103Z,92.61
2022-12-31T06:58:04.734Z,92.57
2022-12-31T06:59:28.127Z,92.64
2022-12-31T07:00:36.899Z,92.57
2022-12-31T07:02:10.265Z,92.80
2022-12-31T07:03:40.068Z,92.98
2022-12-31T07:05:16.307Z,93.10
2022-12-31T07:06:44.453Z,93.08
2022-12-31T07:08:39.531Z,93.14
2022-12-31T07:09:55.033Z,93.04
2022-12-31T07:11:15.269Z,92.73
2022-12-31T07:12:31.675Z,92.57
2022-12-31T07:14:27.421Z,92.88
2022-12-31T07:15:52.349Z,93.26
2022-12-31T07:17:52.556Z,93.23
2022-12-31T07:19:45.095Z,93.19
2022-12-31T07:20:58.333Z,92.93
2022-12-31T07:22:27.189Z,92.85
2022-12-31T07:25:27.315Z,92.86
2022-12-31T07:27:01.983Z,92.86
2022-12-31T07:29:19.076Z,92.85
2022-12-31T07:30:47.916Z,92.60
2022-12-31T07:32:38.007Z,92.99
2022-12-31T07:34:25.546Z,93.05
2022-12-31T07:36:19.501Z,93.10
2022-12-31T07:37:48.581Z,93.56
2022-12-31T07:39:11.797Z,93.49
2022-12-31T07:41:26.331Z,93.76
2022-12-31T07:43:01.911Z,93.59
2022-12-31T07:45:00.805Z,93.12
2022-12-31T07:46:57.377Z,92.97
2022-12-31T07:48:03.000Z,92.83
2022-12-31T07:49:18.849Z,92.67
2022-12-31T07:50:32.989Z,92.27
2022-12-31T07:51:45.599Z,92.49
2022-12-31T07:52:57.352Z,92.25
2022-12-31T07:54:13.399Z,92.16
2022-12-31T07:55:20.034Z,91.71
2022-12-31T07:56:27.262Z,91.69
2022-12-31T07:58:19.305Z,91.45
2022-12-31T07:59:50.755Z,91.55
2022-12-31T08:01:02.022Z,91.96
2022-12-31T08:02:47.645Z,91.94
2022-12-31T08:04:33.922Z,92.19
2022-12-31T08:05:52.963Z,92.56
2022-12-31T08:07:18.571Z,92.77
2022-12-31T08:08:59.714Z,93.52
2022-12-31T08:10:29.104Z,93.83
2022-12-31T08:12:10.706Z,93.32
2022-12-31T08:13:21.185Z,93.65
2022-12-31T08:14:26.187Z,93.24
2022-12-31T08:15:31.649Z,93.42
2022-12-31T08:16:39.304Z,93.17
2022-12-31T08:18:05.406Z,93.12
2022-12-31T08:19:33.402Z,93.04
2022-12-31T08:21:09.571Z,93.13
2022-12-31T08:22:34.380Z,92.76
2022-12-31T08:24:42.151Z,92.11
2022-12-31T08:26:59.113Z,91.40
2022-12-31T08:29:24.498Z,90.51
2022-12-31T08:32:56.310Z,90.45
2022-12-31T08:35:04.476Z,90.31
2022-12-31T08:36:39.813Z,90.22
2022-12-31T08:38:23.264Z,89.91
2022-12-31T08:39:56.187Z,89.73
2022-12-31T08:41:36.314Z,89.20
2022-12-31T08:43:04.966Z,89.28
2022-12-31T08:44:45.291Z,89.04
2022-12-31T08:45:54.432Z,88.96
2022-12-31T08:47:21.986Z,89.00
2022-12-31T08:48:48.575Z,88.65
2022-12-31T08:49:56.590Z,88.56
2022-12-31T08:51:03.237Z,88.66
2022-12-31T08:52:22.338Z,88.57
2022-12-31T08:53:26.988Z,88.55
2022-12-31T08:54:34.020Z,88.74
2022-12-31T08:55:39.088Z,88.52
2022-12-31T08:57:17.075Z,88.47
2022-12-31T08:58:52.718Z,88.25
2022-12-31T09:00:08.403Z,87.82
2022-12-31T09:01:23.737Z,87.80
2022-12-31T09:03:13.588Z,87.35
2022-12-31T09:05:09.073Z,87.37
2022-12-31T09:06:44.093Z,87.11
2022-12-31T09:08:20.620Z,86.95
2022-12-31T09:10:21.084Z,87.20
2022-12-31T09:12:04.492Z,86.91
2022-12-31T09:13:11.092Z,86.69
2022-12-31T09:14:51.583Z,86.53
2022-12-31T09:16:22.844Z,86.25
2022-12-31T09:17:45.803Z,86.08
2022-12-31T09:18:50.496Z,86.22
2022-12-31T09:19:56.990Z,86.34
2022-12-31T09:21:37.651Z,86.00
2022-12-31T09:22:42.643Z,85.96
2022-12-31T09:24:05.910Z,86.14
2022-12-31T09:25:18.211Z,86.36
2022-12-31T09:27:01.176Z,86.04
2022-12-31T09:28:29.699Z,86.01
2022-12-31T09:30:16.801Z,86.00
2022-12-31T09:32:10.577Z,85.96
2022-12-31T09:34:04.320Z,85.25
2022-12-31T09:35:59.109Z,84.93
2022-12-31T09:37:36.444Z,84.70
2022-12-31T09:39:09.197Z,84.58
2022-12-31T09:41:24.093Z,84.78
2022-12-31T09:43:09.014Z,84.85
2022-12-31T09:45:01.980Z,84.69
2022-12-31T09:46:46.796Z,84.52
2022-12-31T09:48:36.689Z,84.71
2022-12-31T09:50:24.052Z,84.97
2022-12-31T09:51:51.397Z,84.74
2022-12-31T09:53:43.153Z,84.32
2022-12-31T09:55:46.081Z,83.82
2022-12-31T09:57:49.360Z,83.81
2022-12-31T10:00:24.088Z,83.28
2022-12-31T10:02:00.428Z,83.17
2022-12-31T10:04:02.007Z,82.24
2022-12-31T10:05:53.675Z,82.13
2022-12-31T10:07:41.033Z,81.52
2022-12-31T10:09:17.985Z,81.23
2022-12-31T10:11:03.592Z,80.90
2022-12-31T10:12:44.108Z,80.87
2022-12-31T10:14:47.762Z,80.43
2022-12-31T10:16:41.811Z,79.99
2022-12-31T10:18:13.668Z,79.95
2022-12-31T10:20:18.457Z,79.75
2022-12-31T10:22:31.881Z,79.82
2022-12-31T10:24:11.459Z,79.69
2022-12-31T10:25:44.135Z,78.94
2022-12-31T10:27:39.437Z,79.22
2022-12-31T10:29:29.127Z,78.93
2022-12-31T10:30:49.501Z,78.60
2022-12-31T10:32:25.050Z,78.59
2022-12-31T10:34:33.421Z,78.27
2022-12-31T10:36:28.716Z,78.86
2022-12-31T10:38:24.357Z,78.92
2022-12-31T10:39:48.126Z,78.42
2022-12-31T10:41:37.489Z,78.56
2022-12-31T10:43:08.017Z,78.21
2022-12-31T10:44:35.750Z,78.54
2022-12-31T10:45:59.493Z,78.49
2022-12-31T10:47:43.274Z,78.04
2022-12-31T10:49:27.385Z,77.89
2022-12-31T10:51:08.381Z,77.62
2022-12-31T10:53:13.026Z,77.64
2022-12-31T10:54:47.432Z,77.59
2022-12-31T10:57:16.937Z,77.72
2022-12-31T10:59:24.940Z,77.64
2022-12-31T11:01:34.692Z,77.45
2022-12-31T11:03:47.594Z,77.58
2022-12-31T11:05:17.872Z,77.83
2022-12-31T11:06:58.415Z,77.61
2022-12-31T11:08:31.138Z,77.81
2022-12-31T11:10:08.504Z,77.88
2022-12-31T11:12:00.292Z,77.90
2022-12-31T11:13:31.852Z,77.58
2022-12-31T11:15:22.228Z,77.63
2022-12-31T11:17:16.519Z,77.56
2022-12-31T11:18:56.301Z,77.25
2022-12-31T11:20:57.605Z,77.45
2022-12-31T11:22:34.163Z,77.57
2022-12-31T11:24:30.491Z,77.28
2022-12-31T11:26:07.023Z,77.10
2022-12-31T11:27:48.984Z,77.13
2022-12-31T11:29:26.183Z,77.22
2022-12-31T11:31:33.776Z,77.15
2022-12-31T11:33:42.988Z,77.48
2022-12-31T11:34:57.305Z,77.56
2022-12-31T11:36:51.601Z,77.55
2022-12-31T11:38:25.150Z,77.56
2022-12-31T11:40:19.777Z,77.41
2022-12-31T11:42:09.004Z,77.62
2022-12-31T11:43:53.186Z,77.83
2022-12-31T11:45:22.907Z,77.61
2022-12-31T11:47:21.617Z,77.62
2022-12-31T11:48:58.925Z,77.14
2022-12-31T11:50:22.506Z,77.31
2022-12-31T11:52:01.938Z,77.33
2022-12-31T11:54:02.467Z,77.18
2022-12-31T11:55:48.682Z,77.49
2022-12-31T11:57:37.888Z,77.15
2022-12-31T11:58:54.775Z,77.57
2022-12-31T12:00:20.550Z,77.13
2022-12-31T12:02:01.654Z,77.15
2022-12-31T12:03:23.742Z,77.02
2022-12-31T12:04:42.293Z,77.13
2022-12-31T12:06:06.374Z,76.75
2022-12-31T12:07:34.009Z,76.84
2022-12-31T12:08:58.660Z,76.94
2022-12-31T12:10:47.687Z,77.00
2022-12-31T12:12:10.569Z,77.01
2022-12-31T12:13:42.394Z,76.89
2022-12-31T12:15:11.811Z,76.80
2022-12-31T12:16:36.289Z,76.55
2022-12-31T12:18:51.940Z,76.70
2022-12-31T12:21:09.865Z,76.50
2022-12-31T12:22:39.305Z,76.79
2022-12-31T12:24:20.057Z,76.63
2022-12-31T12:25:37.962Z,76.75
2022-12-31T12:26:47.887Z,76.68
2022-12-31T12:27:55.427Z,76.78
2022-12-31T12:29:27.806Z,76.53
2022-12-31T12:30:44.756Z,76.59
2022-12-31T12:32:16.064Z,76.87
2022-12-31T12:33:48.971Z,76.67
2022-12-31T12:34:54.134Z,76.78
2022-12-31T12:36:15.661Z,76.38
2022-12-31T12:37:35.699Z,76.23
2022-12-31T12:38:40.331Z,76.54
2022-12-31T12:40:31.445Z,76.42
2022-12-31T12:41:38.841Z,76.16
2022-12-31T12:42:55.801Z,76.29
2022-12-31T12:44:22.461Z,76.14
2022-12-31T12:45:51.669Z,76.10
2022-12-31T12:46:57.360Z,76.22
2022-12-31T12:48:20.052Z,76.32
2022-12-31T12:49:37.724Z,76.29
2022-12-31T12:51:01.023Z,75.99
2022-12-31T12:52:11.069Z,76.29
2022-12-31T12:53:51.415Z,76.05
2022-12-31T12:55:32.153Z,76.10
2022-12-31T12:57:27.400Z,76.34
2022-12-31T12:59:26.065Z,76.31
2022-12-31T13:01:06.945Z,76.29
2022-12-31T13:02:50.126Z,76.36
2022-12-31T13:04:49.666Z,76.19
2022-12-31T13:06:15.277Z,76.26
2022-12-31T13:07:46.731Z,76.40
2022-12-31T13:09:51.204Z,76.71
2022-12-31T13:11:33.295Z,76.63
2022-12-31T13:13:40.089Z,76.53
2022-12-31T13:15:16.630Z,76.71
2022-12-31T13:17:09.443Z,76.71
2022-12-31T13:18:51.070Z,76.93
2022-12-31T13:20:24.876Z,76.57
2022-12-31T13:22:11.559Z,76.30
2022-12-31T13:23:42.021Z,76.76
2022-12-31T13:24:56.146Z,76.69
2022-12-31T13:26:57.390Z,76.94
2022-12-31T13:28:09.051Z,76.76
2022-12-31T13:29:32.627Z,76.83
2022-12-31T13:30:46.461Z,76.87
2022-12-31T13:31:53.043Z,76.88
2022-12-31T13:33:50.418Z,77.04
2022-12-31T13:35:32.459Z,77.18
2022-12-31T13:36:53.300Z,77.30
2022-12-31T13:38:37.594Z,77.04
2022-12-31T13:39:52.140Z,77.24
2022-12-31T13:41:20.987Z,77.23
2022-12-31T13:42:50.313Z,77.40
2022-12-31T13:44:36.722Z,77.29
2022-12-31T13:46:04.628Z,77.59
2022-12-31T13:47:37.419Z,77.55
2022-12-31T13:49:05.899Z,77.87
2022-12-31T13:50:42.863Z,77.64
2022-12-31T13:51:51.217Z,77.69
2022-12-31T13:53:17.821Z,77.60
2022-12-31T13:54:45.081Z,78.10
2022-12-31T13:55:58.185Z,77.88
2022-12-31T13:57:33.175Z,77.96
2022-12-31T14:00:49.258Z,78.19
2022-12-31T14:02:39.060Z,78.58
2022-12-31T14:04:35.547Z,78.48
2022-12-31T14:06:03.948Z,78.56
2022-12-31T14:07:32.227Z,78.81
2022-12-31T14:08:39.747Z,78.92
2022-12-31T14:09:47.608Z,78.67
2022-12-31T14:11:25.743Z,78.83
2022-12-31T14:13:01.251Z,78.85
2022-12-31T14:15:06.826Z,78.92
2022-12-31T14:16:42.596Z,79.12
2022-12-31T14:18:29.003Z,79.03
2022-12-31T14:20:28.727Z,78.93
2022-12-31T14:22:10.493Z,79.03
2022-12-31T14:23:44.951Z,79.23
2022-12-31T14:24:52.911Z,79.52
2022-12-31T14:26:05.380Z,79.37
2022-12-31T14:27:50.727Z,79.29
2022-12-31T14:29:28.824Z,79.62
2022-12-31T14:30:58.944Z,79.79
2022-12-31T14:33:15.131Z,79.77
2022-12-31T14:34:47.724Z,79.81
2022-12-31T14:36:25.645Z,79.88
2022-12-31T14:37:59.888Z,80.12
2022-12-31T14:39:53.624Z,80.40
2022-12-31T14:41:39.717Z,80.56
2022-12-31T14:43:41.790Z,80.63
2022-12-31T14:45:14.938Z,80.86
2022-12-31T14:46:34.040Z,80.96
2022-12-31T14:48:03.049Z,81.59
2022-12-31T14:49:50.886Z,81.26
2022-12-31T14:51:05.000Z,81.12
2022-12-31T14:52:47.362Z,81.50
2022-12-31T14:54:04.131Z,81.58
2022-12-31T14:55:17.756Z,81.55
2022-12-31T14:56:46.215Z,81.44
2022-12-31T14:59:37.145Z,81.75
2022-12-31T15:01:36.997Z,82.04
2022-12-31T15:03:04.988Z,82.10
2022-12-31T15:04:16.846Z,82.11
2022-12-31T15:05:36.917Z,82.32
2022-12-31T15:07:20.561Z,82.09
2022-12-31T15:08:50.441Z,82.06
2022-12-31T15:10:45.336Z,82.12
2022-12-31T15:12:29.456Z,82.79
2022-12-31T15:14:33.706Z,82.68
2022-12-31T15:16:08.914Z,82.51
2022-12-31T15:18:17.041Z,83.02
2022-12-31T15:19:30.975Z,82.98
2022-12-31T15:21:12.886Z,83.02
2022-12-31T15:22:58.522Z,83.30
2022-12-31T15:24:15.960Z,83.44
2022-12-31T15:25:41.743Z,83.29
2022-12-31T15:27:38.920Z,83.68
2022-12-31T15:29:15.051Z,83.68
2022-12-31T15:30:49.841Z,83.83
2022-12-31T15:31:59.595Z,83.99
2022-12-31T15:33:42.175Z,83.99
2022-12-31T15:35:30.032Z,83.87
2022-12-31T15:36:52.055Z,83.98
2022-12-31T15:38:34.355Z,84.46
2022-12-31T15:39:48.190Z,84.47
2022-12-31T15:40:53.181Z,84.20
2022-12-31T15:42:39.187Z,84.03
2022-12-31T15:43:47.525Z,84.60
2022-12-31T15:45:09.770Z,84.92
2022-12-31T15:46:29.646Z,85.07
2022-12-31T15:47:59.507Z,84.83
2022-12-31T15:49:16.030Z,85.25
2022-12-31T15:50:26.870Z,84.90
2022-12-31T15:52:00.365Z,85.27
2022-12-31T15:53:33.694Z,85.36
2022-12-31T15:54:52.430Z,85.08
2022-12-31T15:56:01.114Z,85.35
2022-12-31T15:57:09.558Z,85.46
2022-12-31T15:58:21.643Z,85.38
2022-12-31T15:59:28.016Z,85.22
2022-12-31T16:00:56.632Z,85.22
2022-12-31T16:02:01.325Z,85.09
2022-12-31T16:03:27.284Z,85.33
2022-12-31T16:04:33.979Z,85.46
2022-12-31T16:05:38.636Z,85.40
2022-12-31T16:06:50.628Z,85.34
2022-12-31T16:07:57.653Z,85.81
2022-12-31T16:09:25.878Z,85.59
2022-12-31T16:10:39.636Z,85.68
2022-12-31T16:11:44.819Z,85.41
2022-12-31T16:12:54.107Z,85.54
2022-12-31T16:14:00.117Z,85.70
2022-12-31T16:15:24.674Z,85.80
2022-12-31T16:16:33.840Z,85.52
2022-12-31T16:17:40.107Z,85.53
2022-12-31T16:18:45.941Z,85.80
2022-12-31T16:19:50.817Z,85.94
2022-12-31T16:20:57.484Z,85.91
2022-12-31T16:22:32.523Z,86.15
2022-12-31T16:23:42.462Z,86.13
2022-12-31T16:26:49.659Z,86.23
2022-12-31T16:27:55.428Z,86.17
2022-12-31T16:29:00.835Z,86.19
2022-12-31T16:30:23.077Z,86.10
2022-12-31T16:31:34.661Z,86.03
2022-12-31T16:32:40.764Z,86.09
2022-12-31T16:34:13.400Z,86.51
2022-12-31T16:35:31.825Z,86.65
2022-12-31T16:36:36.935Z,86.45
2022-12-31T16:37:40.645Z,86.41
2022-12-31T16:38:44.538Z,86.94
2022-12-31T16:39:57.523Z,87.05
2022-12-31T16:41:19.151Z,86.75
2022-12-31T16:42:28.730Z,86.77
2022-12-31T16:43:41.935Z,86.80
2022-12-31T16:44:48.659Z,87.07
2022-12-31T16:46:13.494Z,86.79
2022-12-31T16:47:38.414Z,86.86
2022-12-31T16:48:57.300Z,86.71
2022-12-31T16:50:18.739Z,87.04
2022-12-31T16:51:28.810Z,86.81
2022-12-31T16:52:42.287Z,86.47
2022-12-31T16:53:48.419Z,86.90
2022-12-31T16:54:54.694Z,86.71
2022-12-31T16:56:31.157Z,86.61
2022-12-31T16:57:43.500Z,86.87
2022-12-31T16:59:35.110Z,86.62
2022-12-31T17:00:46.122Z,86.90
2022-12-31T17:01:51.547Z,87.14
2022-12-31T17:03:20.355Z,86.78
2022-12-31T17:04:27.861Z,86.87
2022-12-31T17:06:34.974Z,87.17
2022-12-31T17:07:43.671Z,86.99
2022-12-31T17:08:58.067Z,87.00
2022-12-31T17:10:09.859Z,87.21
2022-12-31T17:11:35.797Z,87.15
2022-12-31T17:14:31.134Z,87.16
2022-12-31T17:15:53.379Z,87.13
2022-12-31T17:17:27.949Z,86.85
2022-12-31T17:18:45.777Z,86.70
2022-12-31T17:20:01.989Z,86.86
2022-12-31T17:21:20.075Z,86.59
2022-12-31T17:22:56.644Z,86.90
2022-12-31T17:24:23.829Z,86.81
2022-12-31T17:25:34.459Z,86.82
2022-12-31T17:26:38.836Z,86.87
2022-12-31T17:28:01.536Z,86.69
2022-12-31T17:29:31.648Z,86.78
2022-12-31T17:30:43.077Z,87.12
2022-12-31T17:32:32.426Z,87.01
2022-12-31T17:33:40.332Z,87.07
2022-12-31T17:34:52.585Z,87.14
2022-12-31T17:36:25.817Z,87.13
2022-12-31T17:37:31.654Z,87.22
2022-12-31T17:38:38.112Z,86.87
2022-12-31T17:40:24.991Z,87.12
2022-12-31T17:41:47.739Z,87.01
2022-12-31T17:42:55.952Z,87.01
2022-12-31T17:44:00.169Z,86.98
2022-12-31T17:45:21.309Z,87.21
2022-12-31T17:46:31.465Z,87.32
2022-12-31T17:47:53.979Z,87.46
2022-12-31T17:49:03.834Z,87.31
2022-12-31T17:50:24.517Z,87.17
2022-12-31T17:51:28.585Z,87.31
2022-12-31T17:52:36.208Z,87.44
2022-12-31T17:53:43.256Z,87.38
2022-12-31T17:54:58.461Z,87.00
2022-12-31T17:56:28.982Z,87.46
2022-12-31T17:57:40.581Z,87.53
2022-12-31T17:59:00.793Z,87.48
2022-12-31T18:00:16.713Z,87.30
2022-12-31T18:01:24.820Z,87.29
2022-12-31T18:02:35.810Z,87.56
2022-12-31T18:03:48.053Z,87.48
2022-12-31T18:04:53.643Z,87.40
2022-12-31T18:06:17.264Z,87.30
2022-12-31T18:08:52.741Z,87.52
2022-12-31T18:10:37.683Z,87.55